Estación Meteorológica Peña el Pijo (Robertgarden) [ 12/10/18 12:04:19 CET ]

Fecha Hora Presion(HPa) Temp (°C) Humedad % Rocio (°C) Viento ( m/s) Direccion Lluvia 1Hora(mm) Lluvia 24H(mm) LLuvia Total(mm)
2018-Oct-28 01:01:42 990.700 5.1 84 2.6       3.62 89.61
2018-Oct-28 02:01:34 990.800 4.5 83 1.8       3.62 89.61
2018-Oct-28 03:01:43 990.600 4.1 83 1.5 0.9 NNE   3.62 89.61
2018-Oct-28 04:01:39 990.100 3.4 83 0.8       3.62 89.61
2018-Oct-28 05:01:44 990.100 2.4 85 0.1     0.51 4.14 90.13
2018-Oct-28 06:01:49 990.700 2.3 86 0.2     0.51 4.66 90.65
2018-Oct-28 07:01:47 990.700 2.1 87 0.1       4.66 90.65
2018-Oct-28 08:01:44 990.700 1.7 87 -0.3       4.14 90.65
2018-Oct-28 09:01:57 991.000 3.2 89 1.5     0.51 4.66 91.16
2018-Oct-28 10:01:54 991.400 3.0 87 1.0       4.66 91.16
2018-Oct-28 11:02:02 991.000 4.6 85 2.3       4.66 91.16
2018-Oct-28 12:01:40 991.400 3.3 84 0.8       4.66 91.16
2018-Oct-28 13:02:02 990.600 6.6 80 3.4       4.66 91.16
2018-Oct-28 14:01:46 990.000 9.4 62 2.5 1.3 WNW   4.66 91.16
2018-Oct-28 15:01:39 990.200 5.8 64 -0.5       4.66 91.16
2018-Oct-28 16:01:47 990.800 6.1 61 -0.9       4.66 91.16
2018-Oct-28 17:01:41 991.100 6.6 59 -0.8       3.62 91.16
2018-Oct-28 18:01:47 991.500 4.8 62 -1.9       2.07 91.16
2018-Oct-28 19:01:41 992.200 3.9 63 -2.6       2.07 91.16
2018-Oct-28 20:01:57 992.400 3.1 66 -2.6       1.55 91.16
2018-Oct-28 21:01:56 992.900 2.4 67 -3.1       1.55 91.16
2018-Oct-28 22:02:06 993.000 2.3 68 -3.0       1.55 91.16
2018-Oct-28 23:01:47 993.400 2.6 67 -2.9       1.55 91.16

Temperatura Máxima:    Temperatura Mínima:
Presión Máxima:993.400 Hpa    Presión Mínima:990.000 Hpa


Volver